Camp Washington, Ohio
Current Conditions -  °F | °C
As of 11:56 AM on Friday 31 Oct 2014 (Local Time) from KI69 Reporting Station
Overcast Overcast  
Wind Chill: 45°   Ceiling: 4400
Heat Index: 48°   Visibility: 10mi
Dew Point: 43°   Wind: 7mph
Humidity: 82%   Direction: 250°WSW
Pressure: 29.94"   Gusts: NA
Location:  39.1426°N, 84.5545°W
Report Text: KI69 311556Z AUTO 25006KT 10SM OVC044 09/06 A2994 RMK AO1
Loading
Personal Weather Stations






























Interactive Weather Map
Tropical Storm Tracking
New forecast layout! Learn more

10-Day Weather Forecast

Advertisements
Track Severe Weather on mobile